createdAt,value
2022-09-03T00:00:41.902Z,2.00
2022-09-03T00:03:20.957Z,2.00
2022-09-03T00:06:09.370Z,2.80
2022-09-03T00:08:40.700Z,2.58
2022-09-03T00:11:16.314Z,2.67
2022-09-03T00:13:50.440Z,3.20
2022-09-03T00:16:22.846Z,2.97
2022-09-03T00:19:03.674Z,2.72
2022-09-03T00:21:45.985Z,2.83
2022-09-03T00:24:18.062Z,3.08
2022-09-03T00:26:52.081Z,3.10
2022-09-03T00:29:25.247Z,3.58
2022-09-03T00:31:57.474Z,3.60
2022-09-03T00:34:31.641Z,2.83
2022-09-03T00:36:59.373Z,3.70
2022-09-03T00:39:28.169Z,3.47
2022-09-03T00:42:08.196Z,3.20
2022-09-03T00:44:57.190Z,2.75
2022-09-03T00:47:36.246Z,3.65
2022-09-03T00:50:25.645Z,3.25
2022-09-03T00:53:03.071Z,3.10
2022-09-03T00:56:04.319Z,3.33
2022-09-03T00:59:09.385Z,2.88
2022-09-03T01:01:58.253Z,2.67
2022-09-03T01:04:50.840Z,2.63
2022-09-03T01:07:36.972Z,3.00
2022-09-03T01:10:44.816Z,3.00
2022-09-03T01:13:32.228Z,3.10
2022-09-03T01:16:22.395Z,3.05
2022-09-03T01:18:58.219Z,2.67
2022-09-03T01:22:22.384Z,2.72
2022-09-03T01:24:51.768Z,2.95
2022-09-03T01:27:55.945Z,2.30
2022-09-03T01:30:24.446Z,2.33
2022-09-03T01:33:00.435Z,2.72
2022-09-03T01:35:33.164Z,2.88
2022-09-03T01:38:00.166Z,2.53
2022-09-03T01:40:54.001Z,2.95
2022-09-03T01:43:37.095Z,2.70
2022-09-03T01:46:17.071Z,2.50
2022-09-03T01:49:11.727Z,2.38
2022-09-03T01:51:38.872Z,2.30
2022-09-03T01:54:50.704Z,2.60
2022-09-03T01:57:35.444Z,2.47
2022-09-03T02:00:10.912Z,2.30
2022-09-03T02:02:38.197Z,2.60
2022-09-03T02:05:19.259Z,2.30
2022-09-03T02:07:53.260Z,2.50
2022-09-03T02:10:32.567Z,2.20
2022-09-03T02:13:06.052Z,2.60
2022-09-03T02:15:36.064Z,2.42
2022-09-03T02:18:06.321Z,2.55
2022-09-03T02:20:34.287Z,2.37
2022-09-03T02:23:01.280Z,1.98
2022-09-03T02:25:37.072Z,2.60
2022-09-03T02:28:06.005Z,2.60
2022-09-03T02:30:43.155Z,2.38
2022-09-03T02:33:10.921Z,2.35
2022-09-03T02:35:38.023Z,2.50
2022-09-03T02:38:17.341Z,2.17
2022-09-03T02:40:44.802Z,2.20
2022-09-03T02:43:33.151Z,2.63
2022-09-03T02:46:04.418Z,2.30
2022-09-03T02:48:31.272Z,2.45
2022-09-03T02:50:58.134Z,2.42
2022-09-03T02:53:25.182Z,2.30
2022-09-03T02:55:52.043Z,1.95
2022-09-03T02:58:18.939Z,2.00
2022-09-03T03:00:45.835Z,2.30
2022-09-03T03:03:12.739Z,2.30
2022-09-03T03:05:47.340Z,2.33
2022-09-03T03:08:20.138Z,2.67
2022-09-03T03:10:52.368Z,2.05
2022-09-03T03:13:19.414Z,2.30
2022-09-03T03:15:48.112Z,2.22
2022-09-03T03:18:15.637Z,2.35
2022-09-03T03:20:42.733Z,2.03
2022-09-03T03:23:10.101Z,2.45
2022-09-03T03:25:39.149Z,2.00
2022-09-03T03:28:07.036Z,2.15
2022-09-03T03:30:34.838Z,2.20
2022-09-03T03:33:01.789Z,2.20
2022-09-03T03:35:28.613Z,2.05
2022-09-03T03:37:58.846Z,2.47
2022-09-03T03:40:25.990Z,2.00
2022-09-03T03:42:53.896Z,2.35
2022-09-03T03:45:21.020Z,2.10
2022-09-03T03:47:47.834Z,2.35
2022-09-03T03:50:14.784Z,2.30
2022-09-03T03:52:41.694Z,2.38
2022-09-03T03:55:09.001Z,2.28
2022-09-03T03:57:37.240Z,1.95
2022-09-03T04:00:04.889Z,2.03
2022-09-03T04:02:34.158Z,1.70
2022-09-03T04:05:02.990Z,2.40
2022-09-03T04:07:30.156Z,2.20
2022-09-03T04:09:57.814Z,2.33
2022-09-03T04:12:24.693Z,2.08
2022-09-03T04:14:51.564Z,1.90
2022-09-03T04:17:21.034Z,2.15
2022-09-03T04:19:51.494Z,2.47
2022-09-03T04:22:19.367Z,1.90
2022-09-03T04:24:46.412Z,1.88
2022-09-03T04:27:13.372Z,2.13
2022-09-03T04:29:40.226Z,2.22
2022-09-03T04:32:25.512Z,2.00
2022-09-03T04:34:52.402Z,1.92
2022-09-03T04:37:20.585Z,1.92
2022-09-03T04:39:47.517Z,2.03
2022-09-03T04:42:14.437Z,1.92
2022-09-03T04:44:41.525Z,2.08
2022-09-03T04:47:08.462Z,2.03
2022-09-03T04:49:35.359Z,2.10
2022-09-03T04:52:03.618Z,2.00
2022-09-03T04:54:31.492Z,2.10
2022-09-03T04:56:58.341Z,2.10
2022-09-03T04:59:25.201Z,2.42
2022-09-03T05:01:56.645Z,2.00
2022-09-03T05:04:23.581Z,1.90
2022-09-03T05:06:50.443Z,2.28
2022-09-03T05:09:17.292Z,2.10
2022-09-03T05:11:45.243Z,2.60
2022-09-03T05:14:12.932Z,2.15
2022-09-03T05:16:40.108Z,2.13
2022-09-03T05:19:08.260Z,2.20
2022-09-03T05:21:38.705Z,2.17
2022-09-03T05:24:05.903Z,2.10
2022-09-03T05:26:37.369Z,2.00
2022-09-03T05:29:08.865Z,2.10
2022-09-03T05:31:39.297Z,2.33
2022-09-03T05:34:06.780Z,2.38
2022-09-03T05:36:36.703Z,2.72
2022-09-03T05:39:05.357Z,2.00
2022-09-03T05:41:33.890Z,2.20
2022-09-03T05:44:00.866Z,2.20
2022-09-03T05:46:33.145Z,2.70
2022-09-03T05:49:02.410Z,2.22
2022-09-03T05:51:30.827Z,1.95
2022-09-03T05:53:58.162Z,1.90
2022-09-03T05:56:26.550Z,2.08
2022-09-03T05:58:56.430Z,2.35
2022-09-03T06:01:25.534Z,2.72
2022-09-03T06:04:07.441Z,2.33
2022-09-03T06:06:36.971Z,2.53
2022-09-03T06:09:11.125Z,2.13
2022-09-03T06:11:39.827Z,2.28
2022-09-03T06:14:09.620Z,2.65
2022-09-03T06:16:39.139Z,2.15
2022-09-03T06:19:09.930Z,2.20
2022-09-03T06:21:43.228Z,8.65
2022-09-03T06:24:15.511Z,7.75
2022-09-03T06:26:43.465Z,12.05
2022-09-03T06:29:11.768Z,33.38
2022-09-03T06:31:40.197Z,100.75
2022-09-03T06:34:07.717Z,85.70
2022-09-03T06:36:34.886Z,19.52
2022-09-03T06:39:02.038Z,37.00
2022-09-03T06:41:35.710Z,31.30
2022-09-03T06:44:11.738Z,38.95
2022-09-03T06:46:42.837Z,24.52
2022-09-03T06:51:38.401Z,38.28
2022-09-03T06:54:08.122Z,32.45
2022-09-03T06:56:40.261Z,29.80
2022-09-03T06:59:10.268Z,33.28
2022-09-03T07:01:44.502Z,30.15
2022-09-03T07:04:13.553Z,33.90
2022-09-03T07:06:43.104Z,30.15
2022-09-03T07:09:12.072Z,27.48
2022-09-03T07:11:47.838Z,26.77
2022-09-03T07:14:16.865Z,24.80
2022-09-03T07:16:44.112Z,22.63
2022-09-03T07:19:13.858Z,21.75
2022-09-03T07:21:45.244Z,19.35
2022-09-03T07:24:15.514Z,16.80
2022-09-03T07:26:49.804Z,14.20
2022-09-03T07:29:21.093Z,14.02
2022-09-03T07:31:52.425Z,12.77
2022-09-03T07:34:22.278Z,12.48
2022-09-03T07:36:51.993Z,11.65
2022-09-03T07:39:19.149Z,10.90
2022-09-03T07:41:47.337Z,9.10
2022-09-03T07:44:16.528Z,7.88
2022-09-03T07:46:45.733Z,7.93
2022-09-03T07:49:13.388Z,8.18
2022-09-03T07:51:40.433Z,5.90
2022-09-03T07:54:11.694Z,4.72
2022-09-03T07:56:40.483Z,4.72
2022-09-03T07:59:08.733Z,6.30
2022-09-03T08:01:38.461Z,5.68
2022-09-03T08:04:09.716Z,5.13
2022-09-03T08:06:38.504Z,5.35
2022-09-03T08:09:09.318Z,5.18
2022-09-03T08:11:39.024Z,4.88
2022-09-03T08:14:08.723Z,5.07
2022-09-03T08:16:50.036Z,4.45
2022-09-03T08:19:23.621Z,4.25
2022-09-03T08:21:50.698Z,4.47
2022-09-03T08:24:21.661Z,4.10
2022-09-03T08:26:52.153Z,4.20
2022-09-03T08:29:20.469Z,4.10
2022-09-03T08:31:47.741Z,4.28
2022-09-03T08:34:15.041Z,4.18
2022-09-03T08:36:42.283Z,3.53
2022-09-03T08:39:11.254Z,3.47
2022-09-03T08:41:47.196Z,4.00
2022-09-03T08:44:17.099Z,4.22
2022-09-03T08:47:12.463Z,3.67
2022-09-03T08:49:58.037Z,3.92
2022-09-03T08:52:32.738Z,3.67
2022-09-03T08:55:16.727Z,3.40
2022-09-03T08:57:49.989Z,3.72
2022-09-03T09:00:18.333Z,3.55
2022-09-03T09:02:57.701Z,2.92
2022-09-03T09:05:55.206Z,2.90
2022-09-03T09:08:39.963Z,2.97
2022-09-03T09:11:28.069Z,2.83
2022-09-03T09:14:02.565Z,2.88
2022-09-03T09:17:08.174Z,3.35
2022-09-03T09:19:59.092Z,3.35
2022-09-03T09:22:29.035Z,3.03
2022-09-03T09:24:59.583Z,2.75
2022-09-03T09:27:26.724Z,2.90
2022-09-03T09:29:55.450Z,2.95
2022-09-03T09:32:22.393Z,3.20
2022-09-03T09:34:52.239Z,2.85
2022-09-03T09:37:20.442Z,3.28
2022-09-03T09:40:00.117Z,3.10
2022-09-03T09:42:30.257Z,2.70
2022-09-03T09:44:57.256Z,2.90
2022-09-03T09:47:37.162Z,2.38
2022-09-03T09:50:04.958Z,3.05
2022-09-03T09:52:32.507Z,2.78
2022-09-03T09:55:15.585Z,2.95
2022-09-03T09:57:42.648Z,2.67
2022-09-03T10:00:13.597Z,2.63
2022-09-03T10:02:57.437Z,2.50
2022-09-03T10:05:27.514Z,2.75
2022-09-03T10:07:59.651Z,2.40
2022-09-03T10:10:29.333Z,2.70
2022-09-03T10:13:10.401Z,2.33
2022-09-03T10:18:39.427Z,2.75
2022-09-03T10:21:35.623Z,2.80
2022-09-03T10:24:20.899Z,2.58
2022-09-03T10:26:51.883Z,3.30
2022-09-03T10:32:42.736Z,2.55
2022-09-03T10:35:30.975Z,2.92
2022-09-03T10:38:23.842Z,2.72
2022-09-03T10:40:50.972Z,2.92
2022-09-03T10:43:46.254Z,3.00
2022-09-03T10:46:23.823Z,2.95
2022-09-03T10:49:12.121Z,2.83
2022-09-03T10:52:15.971Z,2.47
2022-09-03T10:54:56.457Z,2.90
2022-09-03T10:57:54.465Z,2.90
2022-09-03T11:00:23.042Z,2.63
2022-09-03T11:03:31.991Z,2.50
2022-09-03T11:06:02.001Z,2.67
2022-09-03T11:08:34.698Z,4.10
2022-09-03T11:11:29.880Z,3.88
2022-09-03T11:14:11.155Z,3.80
2022-09-03T11:16:53.612Z,3.70
2022-09-03T11:19:31.285Z,2.90
2022-09-03T11:21:58.881Z,3.38
2022-09-03T11:24:33.454Z,2.92
2022-09-03T11:27:14.691Z,3.03
2022-09-03T11:30:00.559Z,3.20
2022-09-03T11:32:55.942Z,2.60
2022-09-03T11:35:31.978Z,3.53
2022-09-03T11:38:07.940Z,3.10
2022-09-03T11:40:40.558Z,2.85
2022-09-03T11:43:11.854Z,3.30
2022-09-03T11:45:39.584Z,3.10
2022-09-03T11:48:33.641Z,3.47
2022-09-03T11:51:00.991Z,3.80
2022-09-03T11:53:35.329Z,3.45
2022-09-03T11:56:14.822Z,3.33
2022-09-03T11:58:43.772Z,2.95
2022-09-03T12:01:16.326Z,3.10
2022-09-03T12:03:55.079Z,3.67
2022-09-03T12:07:20.119Z,3.80
2022-09-03T12:09:51.888Z,3.53
2022-09-03T12:15:10.265Z,3.03
2022-09-03T12:18:13.574Z,3.33
2022-09-03T12:20:41.940Z,3.13
2022-09-03T12:23:17.755Z,3.45
2022-09-03T12:25:47.774Z,2.83
2022-09-03T12:28:23.520Z,3.25
2022-09-03T12:30:53.992Z,2.90
2022-09-03T12:33:23.274Z,3.38
2022-09-03T12:35:58.747Z,3.65
2022-09-03T12:38:27.936Z,3.13
2022-09-03T12:43:46.198Z,4.10
2022-09-03T12:46:17.897Z,3.22
2022-09-03T12:52:06.171Z,3.55
2022-09-03T12:54:39.605Z,3.40
2022-09-03T12:57:06.976Z,3.17
2022-09-03T12:59:37.635Z,2.85
2022-09-03T13:02:16.391Z,3.90
2022-09-03T13:04:45.654Z,3.60
2022-09-03T13:07:21.954Z,3.60
2022-09-03T13:09:49.560Z,3.38
2022-09-03T13:12:28.791Z,2.97
2022-09-03T13:14:57.547Z,3.08
2022-09-03T13:17:52.387Z,2.70
2022-09-03T13:20:34.696Z,2.67
2022-09-03T13:23:16.079Z,3.17
2022-09-03T13:25:59.898Z,3.28
2022-09-03T13:28:45.583Z,2.67
2022-09-03T13:31:37.675Z,2.85
2022-09-03T13:34:16.844Z,2.78
2022-09-03T13:36:57.174Z,2.78
2022-09-03T13:39:26.793Z,3.47
2022-09-03T13:42:02.501Z,3.00
2022-09-03T13:44:38.767Z,3.85
2022-09-03T13:47:30.337Z,3.70
2022-09-03T13:50:24.331Z,3.22
2022-09-03T13:52:52.691Z,2.75
2022-09-03T13:55:31.780Z,3.20
2022-09-03T13:58:06.058Z,3.13
2022-09-03T14:00:54.945Z,3.00
2022-09-03T14:03:30.996Z,3.10
2022-09-03T14:06:19.752Z,2.88
2022-09-03T14:09:08.005Z,3.42
2022-09-03T14:12:34.663Z,2.95
2022-09-03T14:15:10.917Z,2.83
2022-09-03T14:17:48.697Z,2.90
2022-09-03T14:20:28.072Z,3.00
2022-09-03T14:23:05.488Z,2.92
2022-09-03T14:25:33.171Z,3.20
2022-09-03T14:28:50.065Z,3.20
2022-09-03T14:31:37.729Z,3.35
2022-09-03T14:34:31.196Z,3.42
2022-09-03T14:37:16.305Z,3.13
2022-09-03T14:39:56.003Z,2.92
2022-09-03T14:42:43.315Z,3.30
2022-09-03T14:45:37.824Z,3.22
2022-09-03T14:48:40.158Z,3.28
2022-09-03T14:51:52.313Z,3.42
2022-09-03T14:54:57.136Z,3.53
2022-09-03T14:57:45.813Z,2.95
2022-09-03T15:00:22.926Z,2.95
2022-09-03T15:03:03.348Z,2.92
2022-09-03T15:06:06.828Z,3.45
2022-09-03T15:09:03.872Z,3.10
2022-09-03T15:11:35.664Z,3.42
2022-09-03T15:14:30.410Z,3.33
2022-09-03T15:17:08.943Z,2.75
2022-09-03T15:19:51.858Z,2.55
2022-09-03T15:22:40.058Z,2.95
2022-09-03T15:25:21.913Z,2.70
2022-09-03T15:28:06.223Z,2.42
2022-09-03T15:30:48.879Z,2.70
2022-09-03T15:33:31.430Z,2.75
2022-09-03T15:36:19.825Z,2.45
2022-09-03T15:39:15.235Z,3.10
2022-09-03T15:41:47.284Z,2.90
2022-09-03T15:44:19.488Z,3.35
2022-09-03T15:46:53.448Z,3.00
2022-09-03T15:49:46.224Z,2.65
2022-09-03T15:52:31.358Z,3.10
2022-09-03T15:55:11.643Z,2.92
2022-09-03T15:58:10.207Z,2.93
2022-09-03T16:01:15.401Z,2.80
2022-09-03T16:03:59.810Z,2.97
2022-09-03T16:06:44.506Z,2.60
2022-09-03T16:09:44.634Z,2.95
2022-09-03T16:12:31.252Z,2.78
2022-09-03T16:15:08.383Z,3.70
2022-09-03T16:17:55.862Z,3.35
2022-09-03T16:20:31.684Z,2.85
2022-09-03T16:23:16.698Z,4.22
2022-09-03T16:26:05.831Z,3.22
2022-09-03T16:28:58.794Z,3.10
2022-09-03T16:31:47.053Z,3.20
2022-09-03T16:34:31.151Z,2.97
2022-09-03T16:37:13.752Z,2.70
2022-09-03T16:40:01.058Z,2.95
2022-09-03T16:42:57.630Z,2.80
2022-09-03T16:46:09.913Z,3.00
2022-09-03T16:48:57.024Z,2.95
2022-09-03T16:51:35.862Z,4.18
2022-09-03T16:54:18.906Z,4.82
2022-09-03T16:57:14.596Z,4.07
2022-09-03T17:00:02.715Z,5.00
2022-09-03T17:02:46.088Z,4.18
2022-09-03T17:05:26.502Z,4.47
2022-09-03T17:08:32.975Z,3.38
2022-09-03T17:11:06.180Z,3.72
2022-09-03T17:13:54.448Z,3.65
2022-09-03T17:16:40.122Z,3.63
2022-09-03T17:19:45.015Z,3.63
2022-09-03T17:22:39.455Z,3.45
2022-09-03T17:25:30.801Z,4.55
2022-09-03T17:28:24.141Z,3.85
2022-09-03T17:31:12.225Z,3.78
2022-09-03T17:33:40.573Z,3.38
2022-09-03T17:36:21.882Z,4.03
2022-09-03T17:39:28.926Z,3.53
2022-09-03T17:41:59.031Z,3.50
2022-09-03T17:44:38.015Z,4.72
2022-09-03T17:47:26.968Z,4.13
2022-09-03T17:50:07.648Z,4.03
2022-09-03T17:52:56.011Z,4.05
2022-09-03T17:55:40.304Z,4.93
2022-09-03T17:58:42.711Z,22.85
2022-09-03T18:01:22.248Z,14.02
2022-09-03T18:04:04.958Z,19.45
2022-09-03T18:06:41.582Z,22.92
2022-09-03T18:09:11.245Z,11.45
2022-09-03T18:11:40.042Z,18.48
2022-09-03T18:14:16.875Z,31.15
2022-09-03T18:16:53.163Z,21.50
2022-09-03T18:20:02.785Z,28.10
2022-09-03T18:23:00.008Z,19.50
2022-09-03T18:25:49.364Z,26.83
2022-09-03T18:28:40.893Z,26.73
2022-09-03T18:31:32.865Z,23.90
2022-09-03T18:34:18.339Z,23.20
2022-09-03T18:37:03.885Z,21.10
2022-09-03T18:39:50.641Z,20.83
2022-09-03T18:43:03.055Z,17.88
2022-09-03T18:49:19.378Z,15.35
2022-09-03T18:52:16.960Z,14.27
2022-09-03T18:55:20.909Z,13.63
2022-09-03T18:58:24.373Z,12.95
2022-09-03T19:01:36.464Z,11.20
2022-09-03T19:04:34.640Z,10.85
2022-09-03T19:07:40.321Z,10.25
2022-09-03T19:10:55.846Z,7.93
2022-09-03T19:13:55.056Z,6.50
2022-09-03T19:17:05.247Z,5.80
2022-09-03T19:20:21.838Z,6.30
2022-09-03T19:23:08.501Z,5.88
2022-09-03T19:25:58.092Z,5.38
2022-09-03T19:29:06.769Z,4.90
2022-09-03T19:32:11.911Z,5.28
2022-09-03T19:35:00.447Z,4.57
2022-09-03T19:38:27.936Z,4.07
2022-09-03T19:42:09.239Z,3.60
2022-09-03T19:45:20.241Z,3.90
2022-09-03T19:48:38.549Z,4.57
2022-09-03T19:52:09.093Z,4.10
2022-09-03T19:54:56.585Z,3.97
2022-09-03T19:57:45.249Z,3.17
2022-09-03T20:00:33.246Z,3.38
2022-09-03T20:03:21.445Z,3.78
2022-09-03T20:06:11.268Z,3.95
2022-09-03T20:08:59.553Z,4.00
2022-09-03T20:11:31.132Z,4.40
2022-09-03T20:14:16.813Z,4.20
2022-09-03T20:17:16.381Z,3.80
2022-09-03T20:20:04.779Z,3.83
2022-09-03T20:22:53.330Z,3.83
2022-09-03T20:25:39.444Z,3.83
2022-09-03T20:28:44.497Z,3.40
2022-09-03T20:31:43.271Z,3.65
2022-09-03T20:34:48.310Z,3.35
2022-09-03T20:37:32.618Z,3.67
2022-09-03T20:40:15.501Z,3.60
2022-09-03T20:43:22.777Z,3.50
2022-09-03T20:45:53.075Z,2.90
2022-09-03T20:49:05.190Z,3.08
2022-09-03T20:51:41.781Z,2.92
2022-09-03T20:54:22.546Z,2.95
2022-09-03T20:56:55.861Z,3.30
2022-09-03T20:59:25.838Z,3.03
2022-09-03T21:02:02.296Z,3.15
2022-09-03T21:04:35.741Z,2.92
2022-09-03T21:07:40.126Z,2.65
2022-09-03T21:10:38.747Z,2.97
2022-09-03T21:13:17.805Z,3.10
2022-09-03T21:15:56.936Z,2.42
2022-09-03T21:18:33.592Z,2.70
2022-09-03T21:21:27.161Z,2.88
2022-09-03T21:24:10.619Z,2.72
2022-09-03T21:26:46.555Z,2.88
2022-09-03T21:29:32.311Z,2.20
2022-09-03T21:32:08.673Z,3.17
2022-09-03T21:34:51.389Z,2.70
2022-09-03T21:37:19.538Z,2.83
2022-09-03T21:39:56.210Z,3.15
2022-09-03T21:42:44.639Z,2.60
2022-09-03T21:45:24.338Z,3.03
2022-09-03T21:47:58.749Z,2.63
2022-09-03T21:50:36.013Z,3.10
2022-09-03T21:53:09.995Z,2.78
2022-09-03T21:55:55.376Z,2.83
2022-09-03T21:58:51.347Z,2.97
2022-09-03T22:01:42.967Z,2.65
2022-09-03T22:04:10.144Z,2.50
2022-09-03T22:06:45.148Z,3.35
2022-09-03T22:09:12.115Z,2.40
2022-09-03T22:11:51.620Z,2.60
2022-09-03T22:14:21.823Z,3.25
2022-09-03T22:16:49.425Z,2.70
2022-09-03T22:19:16.960Z,2.80
2022-09-03T22:22:00.143Z,2.92
2022-09-03T22:24:48.471Z,2.50
2022-09-03T22:27:31.072Z,2.88
2022-09-03T22:30:06.601Z,2.47
2022-09-03T22:33:10.973Z,2.95
2022-09-03T22:36:15.427Z,3.10
2022-09-03T22:39:11.301Z,2.85
2022-09-03T22:42:08.421Z,2.90
2022-09-03T22:44:39.969Z,2.88
2022-09-03T22:47:29.338Z,2.83
2022-09-03T22:50:12.818Z,2.55
2022-09-03T22:52:45.848Z,2.72
2022-09-03T22:55:25.918Z,2.55
2022-09-03T22:58:22.757Z,2.65
2022-09-03T23:00:57.609Z,2.40
2022-09-03T23:03:45.602Z,2.83
2022-09-03T23:06:51.259Z,2.35
2022-09-03T23:09:22.999Z,2.80
2022-09-03T23:11:57.758Z,2.63
2022-09-03T23:14:34.576Z,2.85
2022-09-03T23:17:08.332Z,2.75
2022-09-03T23:19:44.176Z,2.47
2022-09-03T23:22:22.165Z,2.55
2022-09-03T23:24:55.503Z,2.17
2022-09-03T23:27:48.594Z,1.95
2022-09-03T23:30:15.818Z,2.80
2022-09-03T23:32:44.197Z,2.58
2022-09-03T23:35:18.286Z,2.20
2022-09-03T23:37:48.003Z,2.53
2022-09-03T23:40:27.672Z,2.58
2022-09-03T23:43:25.089Z,2.30
2022-09-03T23:46:16.747Z,2.33
2022-09-03T23:48:46.578Z,2.30
2022-09-03T23:51:46.727Z,2.42
2022-09-03T23:54:20.226Z,2.70
2022-09-03T23:56:58.852Z,2.47
2022-09-03T23:59:41.008Z,2.10
